sensor_id;sensor_type;location;lat;lon;timestamp;pressure;altitude;pressure_sealevel;temperature;humidity
12763;BME280;6445;52.490;13.378;2023-01-10T00:00:31;70461.38;;;-146.10;100.00
12763;BME280;6445;52.490;13.378;2023-01-10T00:03:04;70555.84;;;-146.10;100.00
12763;BME280;6445;52.490;13.378;2023-01-10T00:05:29;70079.53;;;-146.10;100.00
12763;BME280;6445;52.490;13.378;2023-01-10T00:07:55;70527.72;;;-146.10;100.00
12763;BME280;6445;52.490;13.378;2023-01-10T00:10:20;71245.28;;;-146.10;100.00
12763;BME280;6445;52.490;13.378;2023-01-10T00:12:45;71778.03;;;-146.10;100.00
12763;BME280;6445;52.490;13.378;2023-01-10T00:15:34;72139.91;;;-146.10;100.00
12763;BME280;6445;52.490;13.378;2023-01-10T00:17:59;71440.28;;;-146.10;100.00
12763;BME280;6445;52.490;13.378;2023-01-10T00:20:25;71004.06;;;-146.10;100.00
12763;BME280;6445;52.490;13.378;2023-01-10T00:22:50;70485.50;;;-146.10;100.00
12763;BME280;6445;52.490;13.378;2023-01-10T00:25:16;70280.50;;;-146.10;100.00
12763;BME280;6445;52.490;13.378;2023-01-10T00:27:44;70256.38;;;-146.10;100.00
12763;BME280;6445;52.490;13.378;2023-01-10T00:30:11;69922.78;;;-146.10;100.00
12763;BME280;6445;52.490;13.378;2023-01-10T00:32:41;69902.69;;;-146.10;100.00
12763;BME280;6445;52.490;13.378;2023-01-10T00:35:06;72041.41;;;-146.10;100.00
12763;BME280;6445;52.490;13.378;2023-01-10T00:37:32;73583.84;;;-146.10;100.00
12763;BME280;6445;52.490;13.378;2023-01-10T00:39:58;71554.88;;;-146.10;100.00
12763;BME280;6445;52.490;13.378;2023-01-10T00:42:23;70507.59;;;-146.10;100.00
12763;BME280;6445;52.490;13.378;2023-01-10T00:45:07;69832.38;;;-146.10;100.00
12763;BME280;6445;52.490;13.378;2023-01-10T00:47:32;70085.56;;;-146.10;100.00
12763;BME280;6445;52.490;13.378;2023-01-10T00:49:58;69687.69;;;-146.10;100.00
12763;BME280;6445;52.490;13.378;2023-01-10T00:52:23;69249.66;;;-146.10;100.00
12763;BME280;6445;52.490;13.378;2023-01-10T00:54:48;68560.56;;;-146.10;100.00
12763;BME280;6445;52.490;13.378;2023-01-10T00:57:13;68679.09;;;-146.10;100.00
12763;BME280;6445;52.490;13.378;2023-01-10T00:59:39;68369.72;;;-146.10;100.00
12763;BME280;6445;52.490;13.378;2023-01-10T01:02:04;68618.81;;;-146.10;100.00
12763;BME280;6445;52.490;13.378;2023-01-10T01:04:30;69117.06;;;-146.10;100.00
12763;BME280;6445;52.490;13.378;2023-01-10T01:06:59;68661.00;;;-146.10;100.00
12763;BME280;6445;52.490;13.378;2023-01-10T01:09:25;68767.47;;;-146.10;100.00
12763;BME280;6445;52.490;13.378;2023-01-10T01:11:50;69667.59;;;-146.10;100.00
12763;BME280;6445;52.490;13.378;2023-01-10T01:14:15;70085.56;;;-146.10;100.00
12763;BME280;6445;52.490;13.378;2023-01-10T01:16:40;68873.94;;;-146.10;100.00
12763;BME280;6445;52.490;13.378;2023-01-10T01:19:06;67496.00;;;-146.10;100.00
12763;BME280;6445;52.490;13.378;2023-01-10T01:21:31;66660.63;;;-146.10;100.00
12763;BME280;6445;52.490;13.378;2023-01-10T01:23:56;66911.63;;;-146.10;100.00
12763;BME280;6445;52.490;13.378;2023-01-10T01:26:25;67210.84;;;-146.10;100.00
12763;BME280;6445;52.490;13.378;2023-01-10T01:28:51;69004.53;;;-146.10;100.00
12763;BME280;6445;52.490;13.378;2023-01-10T01:31:16;69613.34;;;-146.10;100.00
12763;BME280;6445;52.490;13.378;2023-01-10T01:33:41;68845.81;;;-146.10;100.00
12763;BME280;6445;52.490;13.378;2023-01-10T01:36:08;66269.13;;;-146.10;100.00
12763;BME280;6445;52.490;13.378;2023-01-10T01:38:35;62711.06;;;-146.10;100.00
12763;BME280;6445;52.490;13.378;2023-01-10T01:41:00;59641.22;;;-146.10;100.00
12763;BME280;6445;52.490;13.378;2023-01-10T01:43:28;57425.03;;;-146.10;100.00
12763;BME280;6445;52.490;13.378;2023-01-10T01:45:58;53904.91;;;-146.10;100.00
12763;BME280;6445;52.490;13.378;2023-01-10T01:48:29;49710.06;;;-146.10;100.00
12763;BME280;6445;52.490;13.378;2023-01-10T01:51:12;45066.34;;;-146.10;100.00
12763;BME280;6445;52.490;13.378;2023-01-10T01:56:13;36544.44;;;-146.10;100.00
12763;BME280;6445;52.490;13.378;2023-01-10T01:58:48;31866.47;;;-146.10;100.00
12763;BME280;6445;52.490;13.378;2023-01-10T02:01:15;27885.91;;;-146.10;100.00
12763;BME280;6445;52.490;13.378;2023-01-10T02:03:43;24608.63;;;-146.10;100.00
12763;BME280;6445;52.490;13.378;2023-01-10T02:06:11;22100.38;;;-146.10;100.00
12763;BME280;6445;52.490;13.378;2023-01-10T02:08:44;19968.72;;;-146.10;100.00
12763;BME280;6445;52.490;13.378;2023-01-10T02:11:14;16989.53;;;-146.10;100.00
12763;BME280;6445;52.490;13.378;2023-01-10T02:13:41;14983.56;;;-146.10;100.00
12763;BME280;6445;52.490;13.378;2023-01-10T02:16:08;12041.84;;;-146.10;100.00
12763;BME280;6445;52.490;13.378;2023-01-10T02:18:35;9943.41;;;-146.10;100.00
12763;BME280;6445;52.490;13.378;2023-01-10T02:24:06;9025.22;;;-146.10;100.00
12763;BME280;6445;52.490;13.378;2023-01-10T02:26:58;10038.41;;;-146.10;100.00
12763;BME280;6445;52.490;13.378;2023-01-10T02:29:49;10545.13;;;-146.10;100.00
12763;BME280;6445;52.490;13.378;2023-01-10T02:35:48;12319.09;;;-146.10;100.00
12763;BME280;6445;52.490;13.378;2023-01-10T02:38:34;12319.09;;;-146.10;100.00
12763;BME280;6445;52.490;13.378;2023-01-10T02:41:26;13586.72;;;-146.10;100.00
12763;BME280;6445;52.490;13.378;2023-01-10T02:43:58;13840.28;;;-146.10;100.00
12763;BME280;6445;52.490;13.378;2023-01-10T02:46:28;14347.47;;;-146.10;100.00
12763;BME280;6445;52.490;13.378;2023-01-10T02:48:55;14601.09;;;-146.10;100.00
12763;BME280;6445;52.490;13.378;2023-01-10T02:51:26;14854.75;;;-146.10;100.00
12763;BME280;6445;52.490;13.378;2023-01-10T02:54:05;14093.88;;;-146.10;100.00
12763;BME280;6445;52.490;13.378;2023-01-10T02:56:57;13840.28;;;-146.10;100.00
12763;BME280;6445;52.490;13.378;2023-01-10T02:59:58;13333.16;;;-146.10;100.00
12763;BME280;6445;52.490;13.378;2023-01-10T03:08:14;12065.63;;;-146.10;100.00
12763;BME280;6445;52.490;13.378;2023-01-10T03:11:08;8265.50;;;-146.10;100.00
12763;BME280;6445;52.490;13.378;2023-01-10T03:13:42;5987.19;;;-146.10;100.00
12763;BME280;6445;52.490;13.378;2023-01-10T03:16:18;3963.19;;;-146.10;100.00
12763;BME280;6445;52.490;13.378;2023-01-10T03:18:48;2698.72;;;-146.10;100.00
12763;BME280;6445;52.490;13.378;2023-01-10T03:21:17;1940.22;;;-146.10;100.00
12763;BME280;6445;52.490;13.378;2023-01-10T03:23:44;929.16;;;-146.10;100.00
12763;BME280;6445;52.490;13.378;2023-01-10T03:26:12;676.41;;;-146.10;100.00
12763;BME280;6445;52.490;13.378;2023-01-10T03:28:51;-81.66;;;-146.10;100.00
12763;BME280;6445;52.490;13.378;2023-01-10T03:31:30;-1597.41;;;-146.10;100.00
12763;BME280;6445;52.490;13.378;2023-01-10T03:33:58;-2860.03;;;-146.10;100.00
12763;BME280;6445;52.490;13.378;2023-01-10T03:36:30;-4374.69;;;-146.10;100.00
12763;BME280;6445;52.490;13.378;2023-01-10T03:39:04;-5384.09;;;-146.10;100.00
12763;BME280;6445;52.490;13.378;2023-01-10T03:41:48;-5888.72;;;-146.10;100.00
12763;BME280;6445;52.490;13.378;2023-01-10T03:44:25;-6393.25;;;-146.10;100.00
12763;BME280;6445;52.490;13.378;2023-01-10T03:47:08;-6393.25;;;-146.10;100.00
12763;BME280;6445;52.490;13.378;2023-01-10T03:49:37;-6393.25;;;-146.10;100.00
12763;BME280;6445;52.490;13.378;2023-01-10T03:52:04;-6645.50;;;-146.10;100.00
12763;BME280;6445;52.490;13.378;2023-01-10T03:54:31;-7654.34;;;-146.10;100.00
12763;BME280;6445;52.490;13.378;2023-01-10T03:56:56;-8410.78;;;-146.10;100.00
12763;BME280;6445;52.490;13.378;2023-01-10T03:59:24;-9167.06;;;-146.10;100.00
12763;BME280;6445;52.490;13.378;2023-01-10T04:01:51;-10175.25;;;-146.10;100.00
12763;BME280;6445;52.490;13.378;2023-01-10T04:04:17;-10679.22;;;-146.10;100.00
12763;BME280;6445;52.490;13.378;2023-01-10T04:06:42;-11183.13;;;-146.10;100.00
12763;BME280;6445;52.490;13.378;2023-01-10T04:09:08;-11687.00;;;-146.10;100.00
12763;BME280;6445;52.490;13.378;2023-01-10T04:11:33;-11687.00;;;-146.10;100.00
12763;BME280;6445;52.490;13.378;2023-01-10T04:13:59;-11938.88;;;-146.10;100.00
12763;BME280;6445;52.490;13.378;2023-01-10T04:16:24;-11938.88;;;-146.10;100.00
12763;BME280;6445;52.490;13.378;2023-01-10T04:18:49;-12190.78;;;-146.10;100.00
12763;BME280;6445;52.490;13.378;2023-01-10T04:21:15;-12190.78;;;-146.10;100.00
12763;BME280;6445;52.490;13.378;2023-01-10T04:23:40;-12442.63;;;-146.10;100.00
12763;BME280;6445;52.490;13.378;2023-01-10T04:26:05;-12442.63;;;-146.10;100.00
12763;BME280;6445;52.490;13.378;2023-01-10T04:28:31;-12694.50;;;-146.10;100.00
12763;BME280;6445;52.490;13.378;2023-01-10T04:30:56;-12694.50;;;-146.10;100.00
12763;BME280;6445;52.490;13.378;2023-01-10T04:33:21;-12694.50;;;-146.10;100.00
12763;BME280;6445;52.490;13.378;2023-01-10T04:35:48;-12695.97;;;-146.10;100.00
12763;BME280;6445;52.490;13.378;2023-01-10T04:38:14;-12695.97;;;-146.10;100.00
12763;BME280;6445;52.490;13.378;2023-01-10T04:40:40;-12695.97;;;-146.10;100.00
12763;BME280;6445;52.490;13.378;2023-01-10T04:43:05;-12695.97;;;-146.10;100.00
12763;BME280;6445;52.490;13.378;2023-01-10T04:45:30;-12695.97;;;-146.10;100.00
12763;BME280;6445;52.490;13.378;2023-01-10T04:47:56;-12695.97;;;-146.10;100.00
12763;BME280;6445;52.490;13.378;2023-01-10T04:50:23;-12695.97;;;-146.10;100.00
12763;BME280;6445;52.490;13.378;2023-01-10T04:52:48;-12695.97;;;-146.10;100.00
12763;BME280;6445;52.490;13.378;2023-01-10T04:55:14;-12695.97;;;-146.10;100.00
12763;BME280;6445;52.490;13.378;2023-01-10T04:57:39;-12695.97;;;-146.10;100.00
12763;BME280;6445;52.490;13.378;2023-01-10T05:00:05;-12695.97;;;-146.10;100.00
12763;BME280;6445;52.490;13.378;2023-01-10T05:02:31;-12695.97;;;-146.10;100.00
12763;BME280;6445;52.490;13.378;2023-01-10T05:04:56;-12695.97;;;-146.10;100.00
12763;BME280;6445;52.490;13.378;2023-01-10T05:07:21;-12695.97;;;-146.10;100.00
12763;BME280;6445;52.490;13.378;2023-01-10T05:09:46;-12695.97;;;-146.10;100.00
12763;BME280;6445;52.490;13.378;2023-01-10T05:12:12;-12695.97;;;-146.10;100.00
12763;BME280;6445;52.490;13.378;2023-01-10T05:14:37;-12695.97;;;-146.10;100.00
12763;BME280;6445;52.490;13.378;2023-01-10T05:17:03;-12695.97;;;-146.10;100.00
12763;BME280;6445;52.490;13.378;2023-01-10T05:19:28;-12695.97;;;-146.10;100.00
12763;BME280;6445;52.490;13.378;2023-01-10T05:21:54;-12695.97;;;-146.10;100.00
12763;BME280;6445;52.490;13.378;2023-01-10T05:24:19;-12695.97;;;-146.10;100.00
12763;BME280;6445;52.490;13.378;2023-01-10T05:26:44;-12695.97;;;-146.10;100.00
12763;BME280;6445;52.490;13.378;2023-01-10T05:29:10;-12695.97;;;-146.10;100.00
12763;BME280;6445;52.490;13.378;2023-01-10T05:31:35;-12695.97;;;-146.10;100.00
12763;BME280;6445;52.490;13.378;2023-01-10T05:34:00;-12695.97;;;-146.10;100.00
12763;BME280;6445;52.490;13.378;2023-01-10T05:36:25;-12695.97;;;-146.10;100.00
12763;BME280;6445;52.490;13.378;2023-01-10T05:38:51;-12694.50;;;-146.10;100.00
12763;BME280;6445;52.490;13.378;2023-01-10T05:41:16;-12694.50;;;-146.10;100.00
12763;BME280;6445;52.490;13.378;2023-01-10T05:43:41;-12694.50;;;-146.10;100.00
12763;BME280;6445;52.490;13.378;2023-01-10T05:46:07;-12694.50;;;-146.10;100.00
12763;BME280;6445;52.490;13.378;2023-01-10T05:48:32;-12694.50;;;-146.10;100.00
12763;BME280;6445;52.490;13.378;2023-01-10T05:50:57;-12694.50;;;-146.10;100.00
12763;BME280;6445;52.490;13.378;2023-01-10T05:53:23;-12694.50;;;-146.10;100.00
12763;BME280;6445;52.490;13.378;2023-01-10T05:56:00;-12442.63;;;-146.10;100.00
12763;BME280;6445;52.490;13.378;2023-01-10T05:58:26;-12442.63;;;-146.10;100.00
12763;BME280;6445;52.490;13.378;2023-01-10T06:00:54;-12442.63;;;-146.10;100.00
12763;BME280;6445;52.490;13.378;2023-01-10T06:03:20;-12442.63;;;-146.10;100.00
12763;BME280;6445;52.490;13.378;2023-01-10T06:05:45;-12442.63;;;-146.10;100.00
12763;BME280;6445;52.490;13.378;2023-01-10T06:08:11;-12442.63;;;-146.10;100.00
12763;BME280;6445;52.490;13.378;2023-01-10T06:10:36;-12442.63;;;-146.10;100.00
12763;BME280;6445;52.490;13.378;2023-01-10T06:13:02;-12442.63;;;-146.10;100.00
12763;BME280;6445;52.490;13.378;2023-01-10T06:15:29;-12442.63;;;-146.10;100.00
12763;BME280;6445;52.490;13.378;2023-01-10T06:17:54;-12442.63;;;-146.10;100.00
12763;BME280;6445;52.490;13.378;2023-01-10T06:20:19;-12442.63;;;-146.10;100.00
12763;BME280;6445;52.490;13.378;2023-01-10T06:22:44;-12190.78;;;-146.10;100.00
12763;BME280;6445;52.490;13.378;2023-01-10T06:25:10;-12190.78;;;-146.10;100.00
12763;BME280;6445;52.490;13.378;2023-01-10T06:27:39;-12190.78;;;-146.10;100.00
12763;BME280;6445;52.490;13.378;2023-01-10T06:30:04;-12190.78;;;-146.10;100.00
12763;BME280;6445;52.490;13.378;2023-01-10T06:32:30;-12442.63;;;-146.10;100.00
12763;BME280;6445;52.490;13.378;2023-01-10T06:34:55;-12442.63;;;-146.10;100.00
12763;BME280;6445;52.490;13.378;2023-01-10T06:37:20;-12442.63;;;-146.10;100.00
12763;BME280;6445;52.490;13.378;2023-01-10T06:39:46;-12190.78;;;-146.10;100.00
12763;BME280;6445;52.490;13.378;2023-01-10T06:42:11;-12190.78;;;-146.10;100.00
12763;BME280;6445;52.490;13.378;2023-01-10T06:44:37;-11938.88;;;-146.10;100.00
12763;BME280;6445;52.490;13.378;2023-01-10T06:47:02;-11687.00;;;-146.10;100.00
12763;BME280;6445;52.490;13.378;2023-01-10T06:49:27;-11687.00;;;-146.10;100.00
12763;BME280;6445;52.490;13.378;2023-01-10T06:51:54;-11435.06;;;-146.10;100.00
12763;BME280;6445;52.490;13.378;2023-01-10T06:54:19;-11183.13;;;-146.10;100.00
12763;BME280;6445;52.490;13.378;2023-01-10T06:56:46;-11183.13;;;-146.10;100.00
12763;BME280;6445;52.490;13.378;2023-01-10T06:59:12;-11183.13;;;-146.10;100.00
12763;BME280;6445;52.490;13.378;2023-01-10T07:01:37;-11183.13;;;-146.10;100.00
12763;BME280;6445;52.490;13.378;2023-01-10T07:04:03;-11183.13;;;-146.10;100.00
12763;BME280;6445;52.490;13.378;2023-01-10T07:06:28;-10931.19;;;-146.10;100.00
12763;BME280;6445;52.490;13.378;2023-01-10T07:08:53;-10931.19;;;-146.10;100.00
12763;BME280;6445;52.490;13.378;2023-01-10T07:11:19;-11183.13;;;-146.10;100.00
12763;BME280;6445;52.490;13.378;2023-01-10T07:13:44;-11183.13;;;-146.10;100.00
12763;BME280;6445;52.490;13.378;2023-01-10T07:16:12;-11183.13;;;-146.10;100.00
12763;BME280;6445;52.490;13.378;2023-01-10T07:18:41;-11183.13;;;-146.10;100.00
12763;BME280;6445;52.490;13.378;2023-01-10T07:21:07;-11435.06;;;-146.10;100.00
12763;BME280;6445;52.490;13.378;2023-01-10T07:23:33;-11435.06;;;-146.10;100.00
12763;BME280;6445;52.490;13.378;2023-01-10T07:26:06;-11687.00;;;-146.10;100.00
12763;BME280;6445;52.490;13.378;2023-01-10T07:28:32;-11435.06;;;-146.10;100.00
12763;BME280;6445;52.490;13.378;2023-01-10T07:31:01;-11435.06;;;-146.10;100.00
12763;BME280;6445;52.490;13.378;2023-01-10T07:33:27;-11435.06;;;-146.10;100.00
12763;BME280;6445;52.490;13.378;2023-01-10T07:35:53;-11435.06;;;-146.10;100.00
12763;BME280;6445;52.490;13.378;2023-01-10T07:38:19;-11435.06;;;-146.10;100.00
12763;BME280;6445;52.490;13.378;2023-01-10T07:40:44;-11183.13;;;-146.10;100.00
12763;BME280;6445;52.490;13.378;2023-01-10T07:43:09;-11183.13;;;-146.10;100.00
12763;BME280;6445;52.490;13.378;2023-01-10T07:45:35;-11183.13;;;-146.10;100.00
12763;BME280;6445;52.490;13.378;2023-01-10T07:48:02;-11183.13;;;-146.10;100.00
12763;BME280;6445;52.490;13.378;2023-01-10T07:50:31;-11183.13;;;-146.10;100.00
12763;BME280;6445;52.490;13.378;2023-01-10T07:52:58;-11183.13;;;-146.10;100.00
12763;BME280;6445;52.490;13.378;2023-01-10T07:55:24;-11183.13;;;-146.10;100.00
12763;BME280;6445;52.490;13.378;2023-01-10T07:57:50;-11183.13;;;-146.10;100.00
12763;BME280;6445;52.490;13.378;2023-01-10T08:00:16;-11183.13;;;-146.10;100.00
12763;BME280;6445;52.490;13.378;2023-01-10T08:02:42;-10931.19;;;-146.10;100.00
12763;BME280;6445;52.490;13.378;2023-01-10T08:05:08;-10931.19;;;-146.10;100.00
12763;BME280;6445;52.490;13.378;2023-01-10T08:07:33;-10931.19;;;-146.10;100.00
12763;BME280;6445;52.490;13.378;2023-01-10T08:09:58;-10679.22;;;-146.10;100.00
12763;BME280;6445;52.490;13.378;2023-01-10T08:12:23;-10679.22;;;-146.10;100.00
12763;BME280;6445;52.490;13.378;2023-01-10T08:14:50;-10427.25;;;-146.10;100.00
12763;BME280;6445;52.490;13.378;2023-01-10T08:17:15;-9923.22;;;-146.10;100.00
12763;BME280;6445;52.490;13.378;2023-01-10T08:19:40;-9671.19;;;-146.10;100.00
12763;BME280;6445;52.490;13.378;2023-01-10T08:22:06;-9419.13;;;-146.10;100.00
12763;BME280;6445;52.490;13.378;2023-01-10T08:24:31;-9167.06;;;-146.10;100.00
12763;BME280;6445;52.490;13.378;2023-01-10T08:26:57;-8915.00;;;-146.10;100.00
12763;BME280;6445;52.490;13.378;2023-01-10T08:29:23;-8662.91;;;-146.10;100.00
12763;BME280;6445;52.490;13.378;2023-01-10T08:31:48;-8158.66;;;-146.10;100.00
12763;BME280;6445;52.490;13.378;2023-01-10T08:34:13;-7906.50;;;-146.10;100.00
12763;BME280;6445;52.490;13.378;2023-01-10T08:36:38;-7402.16;;;-146.10;100.00
12763;BME280;6445;52.490;13.378;2023-01-10T08:39:04;-6897.75;;;-146.10;100.00
12763;BME280;6445;52.490;13.378;2023-01-10T08:41:29;-6393.25;;;-146.10;100.00
12763;BME280;6445;52.490;13.378;2023-01-10T08:43:55;-5131.78;;;-146.10;100.00
12763;BME280;6445;52.490;13.378;2023-01-10T08:46:20;-4374.69;;;-146.10;100.00
12763;BME280;6445;52.490;13.378;2023-01-10T08:48:46;-4122.28;;;-146.10;100.00
12763;BME280;6445;52.490;13.378;2023-01-10T08:51:12;-4122.28;;;-146.10;100.00
12763;BME280;6445;52.490;13.378;2023-01-10T08:53:38;-4627.06;;;-146.10;100.00
12763;BME280;6445;52.490;13.378;2023-01-10T08:56:04;-4879.41;;;-146.10;100.00
12763;BME280;6445;52.490;13.378;2023-01-10T08:58:29;-5131.78;;;-146.10;100.00
12763;BME280;6445;52.490;13.378;2023-01-10T09:00:54;-5384.09;;;-146.10;100.00
12763;BME280;6445;52.490;13.378;2023-01-10T09:03:21;-4879.41;;;-146.10;100.00
12763;BME280;6445;52.490;13.378;2023-01-10T09:05:46;-4122.28;;;-146.10;100.00
12763;BME280;6445;52.490;13.378;2023-01-10T09:08:11;2193.03;;;-146.10;100.00
12763;BME280;6445;52.490;13.378;2023-01-10T09:10:36;9278.50;;;-146.10;100.00
12763;BME280;6445;52.490;13.378;2023-01-10T09:13:02;22783.38;;;-146.10;100.00
12763;BME280;6445;52.490;13.378;2023-01-10T09:15:32;27271.59;;;-146.10;100.00
12763;BME280;6445;52.490;13.378;2023-01-10T09:17:59;32577.06;;;-146.10;100.00
12763;BME280;6445;52.490;13.378;2023-01-10T09:20:26;33038.91;;;-146.10;100.00
12763;BME280;6445;52.490;13.378;2023-01-10T09:22:52;37399.38;;;-146.10;100.00
12763;BME280;6445;52.490;13.378;2023-01-10T09:25:18;37959.50;;;-146.10;100.00
12763;BME280;6445;52.490;13.378;2023-01-10T09:27:43;37746.19;;;-146.10;100.00
12763;BME280;6445;52.490;13.378;2023-01-10T09:30:09;36879.22;;;-146.10;100.00
12763;BME280;6445;52.490;13.378;2023-01-10T09:32:35;36183.78;;;-146.10;100.00
12763;BME280;6445;52.490;13.378;2023-01-10T09:35:01;34464.66;;;-146.10;100.00
12763;BME280;6445;52.490;13.378;2023-01-10T09:37:26;34663.81;;;-146.10;100.00
12763;BME280;6445;52.490;13.378;2023-01-10T09:39:51;35155.81;;;-146.10;100.00
12763;BME280;6445;52.490;13.378;2023-01-10T09:42:42;29085.03;;;-146.10;100.00
12763;BME280;6445;52.490;13.378;2023-01-10T09:45:18;28066.84;;;-146.10;100.00
12763;BME280;6445;52.490;13.378;2023-01-10T09:50:40;26285.69;;;-146.10;100.00
12763;BME280;6445;52.490;13.378;2023-01-10T09:53:12;28575.91;;;-146.10;100.00
12763;BME280;6445;52.490;13.378;2023-01-10T09:55:39;38336.25;;;-146.10;100.00
12763;BME280;6445;52.490;13.378;2023-01-10T09:58:10;30358.13;;;-146.10;100.00
12763;BME280;6445;52.490;13.378;2023-01-10T10:00:43;29594.22;;;-146.10;100.00
12763;BME280;6445;52.490;13.378;2023-01-10T10:06:13;23488.34;;;-146.10;100.00
12763;BME280;6445;52.490;13.378;2023-01-10T10:08:40;27557.88;;;-146.10;100.00
12763;BME280;6445;52.490;13.378;2023-01-10T10:14:25;44519.19;;;-146.10;100.00
12763;BME280;6445;52.490;13.378;2023-01-10T10:17:25;48248.81;;;-146.10;100.00
12763;BME280;6445;52.490;13.378;2023-01-10T10:23:05;51781.91;;;-146.10;100.00
12763;BME280;6445;52.490;13.378;2023-01-10T10:31:40;51929.94;;;-146.10;100.00
12763;BME280;6445;52.490;13.378;2023-01-10T10:34:23;52270.03;;;-146.10;100.00
12763;BME280;6445;52.490;13.378;2023-01-10T10:36:59;53106.41;;;-146.10;100.00
12763;BME280;6445;52.490;13.378;2023-01-10T10:40:05;54389.28;;;-146.10;100.00
12763;BME280;6445;52.490;13.378;2023-01-10T10:42:38;54959.81;;;-146.10;100.00
12763;BME280;6445;52.490;13.378;2023-01-10T10:45:16;55065.91;;;-146.10;100.00
12763;BME280;6445;52.490;13.378;2023-01-10T10:47:52;55176.03;;;-146.10;100.00
12763;BME280;6445;52.490;13.378;2023-01-10T10:50:29;55027.88;;;-146.10;100.00
12763;BME280;6445;52.490;13.378;2023-01-10T10:52:59;55384.25;;;-146.10;100.00
12763;BME280;6445;52.490;13.378;2023-01-10T10:55:31;56385.47;;;-146.10;100.00
12763;BME280;6445;52.490;13.378;2023-01-10T10:57:57;57138.56;;;-146.10;100.00
12763;BME280;6445;52.490;13.378;2023-01-10T11:00:23;57901.81;;;-146.10;100.00
12763;BME280;6445;52.490;13.378;2023-01-10T11:02:57;57969.94;;;-146.10;100.00
12763;BME280;6445;52.490;13.378;2023-01-10T11:05:35;59617.16;;;-146.10;100.00
12763;BME280;6445;52.490;13.378;2023-01-10T11:08:04;61413.47;;;-146.10;100.00
12763;BME280;6445;52.490;13.378;2023-01-10T11:10:43;62061.22;;;-146.10;100.00
12763;BME280;6445;52.490;13.378;2023-01-10T11:15:57;61369.34;;;-146.10;100.00
12763;BME280;6445;52.490;13.378;2023-01-10T11:18:25;60068.16;;;-146.10;100.00
12763;BME280;6445;52.490;13.378;2023-01-10T11:20:58;53398.56;;;-146.10;97.74
12763;BME280;6445;52.490;13.378;2023-01-10T11:23:53;51791.91;;;-146.10;79.65
12763;BME280;6445;52.490;13.378;2023-01-10T11:26:27;51967.97;;;-146.10;79.55
12763;BME280;6445;52.490;13.378;2023-01-10T11:29:13;51977.97;;;-146.10;79.28
12763;BME280;6445;52.490;13.378;2023-01-10T11:31:39;52059.97;;;-146.10;81.92
12763;BME280;6445;52.490;13.378;2023-01-10T11:34:18;52138.00;;;-146.10;82.72
12763;BME280;6445;52.490;13.378;2023-01-10T11:37:21;52260.03;;;-146.10;84.14
12763;BME280;6445;52.490;13.378;2023-01-10T11:40:07;52410.09;;;-146.10;85.63
12763;BME280;6445;52.490;13.378;2023-01-10T11:42:34;52520.13;;;-146.10;87.77
12763;BME280;6445;52.490;13.378;2023-01-10T11:45:20;52448.09;;;-146.10;85.00
12763;BME280;6445;52.490;13.378;2023-01-10T11:50:33;52326.06;;;-146.10;84.72
12763;BME280;6445;52.490;13.378;2023-01-10T11:52:59;52632.19;;;-146.10;87.63
12763;BME280;6445;52.490;13.378;2023-01-10T11:55:27;53010.34;;;-146.10;90.19
12763;BME280;6445;52.490;13.378;2023-01-10T11:58:02;53256.47;;;-146.10;91.40
12763;BME280;6445;52.490;13.378;2023-01-10T12:00:39;53628.72;;;-146.10;93.11
12763;BME280;6445;52.490;13.378;2023-01-10T12:03:17;54235.16;;;-146.10;94.88
12763;BME280;6445;52.490;13.378;2023-01-10T12:06:05;54571.44;;;-146.10;95.16
12763;BME280;6445;52.490;13.378;2023-01-10T12:08:32;55280.13;;;-146.10;97.18
12763;BME280;6445;52.490;13.378;2023-01-10T12:11:06;56894.19;;;-146.10;99.52
12763;BME280;6445;52.490;13.378;2023-01-10T12:13:52;58364.66;;;-146.10;100.00
12763;BME280;6445;52.490;13.378;2023-01-10T12:16:24;57040.41;;;-146.10;98.73
12763;BME280;6445;52.490;13.378;2023-01-10T12:18:53;55284.13;;;-146.10;95.25
12763;BME280;6445;52.490;13.378;2023-01-10T12:24:44;52598.16;;;-146.10;85.60
12763;BME280;6445;52.490;13.378;2023-01-10T12:26:52;52152.00;;;-146.10;78.56
12763;BME280;6445;52.490;13.378;2023-01-10T12:29:25;52184.03;;;-146.10;80.00
12763;BME280;6445;52.490;13.378;2023-01-10T12:31:52;52230.03;;;-146.10;79.61
12763;BME280;6445;52.490;13.378;2023-01-10T12:34:22;52092.00;;;-146.10;75.76
12763;BME280;6445;52.490;13.378;2023-01-10T12:37:04;52005.97;;;-146.10;69.29
12763;BME280;6445;52.490;13.378;2023-01-10T12:39:37;52001.97;;;-146.10;66.20
12763;BME280;6445;52.490;13.378;2023-01-10T12:42:09;51999.97;;;-146.10;68.38
12763;BME280;6445;52.490;13.378;2023-01-10T12:45:42;51981.97;;;-146.10;70.25
12763;BME280;6445;52.490;13.378;2023-01-10T12:50:17;52049.97;;;-146.10;70.19
12763;BME280;6445;52.490;13.378;2023-01-10T12:52:47;52053.97;;;-146.10;74.87
12763;BME280;6445;52.490;13.378;2023-01-10T12:55:18;52174.00;;;-146.10;78.28
12763;BME280;6445;52.490;13.378;2023-01-10T12:57:47;52244.03;;;-146.10;80.09
12763;BME280;6445;52.490;13.378;2023-01-10T13:02:51;52428.09;;;-146.10;83.97
12763;BME280;6445;52.490;13.378;2023-01-10T13:05:22;52426.09;;;-146.10;84.47
12763;BME280;6445;52.490;13.378;2023-01-10T13:07:49;52498.13;;;-146.10;84.96
12763;BME280;6445;52.490;13.378;2023-01-10T13:10:20;52590.16;;;-146.10;85.58
12763;BME280;6445;52.490;13.378;2023-01-10T13:12:52;52544.13;;;-146.10;85.06
12763;BME280;6445;52.490;13.378;2023-01-10T13:15:26;52542.13;;;-146.10;85.56
12763;BME280;6445;52.490;13.378;2023-01-10T13:17:57;52626.16;;;-146.10;86.06
12763;BME280;6445;52.490;13.378;2023-01-10T13:20:28;52896.28;;;-146.10;88.53
12763;BME280;6445;52.490;13.378;2023-01-10T13:22:56;53208.44;;;-146.10;90.42
12763;BME280;6445;52.490;13.378;2023-01-10T13:25:27;53538.66;;;-146.10;91.89